sensor_id;sensor_type;location;lat;lon;timestamp;P1;durP1;ratioP1;P2;durP2;ratioP2
78860;SDS011;68211;45.774;15.892;2023-04-03T00:01:49;3.65;;;3.25;;
78860;SDS011;68211;45.774;15.892;2023-04-03T00:04:16;3.65;;;3.35;;
78860;SDS011;68211;45.774;15.892;2023-04-03T00:06:42;3.83;;;3.40;;
78860;SDS011;68211;45.774;15.892;2023-04-03T00:09:10;3.67;;;3.20;;
78860;SDS011;68211;45.774;15.892;2023-04-03T00:11:36;3.33;;;3.03;;
78860;SDS011;68211;45.774;15.892;2023-04-03T00:14:03;3.20;;;3.00;;
78860;SDS011;68211;45.774;15.892;2023-04-03T00:16:29;4.35;;;2.90;;
78860;SDS011;68211;45.774;15.892;2023-04-03T00:18:56;3.42;;;3.13;;
78860;SDS011;68211;45.774;15.892;2023-04-03T00:21:22;3.35;;;3.03;;
78860;SDS011;68211;45.774;15.892;2023-04-03T00:23:48;3.50;;;3.20;;
78860;SDS011;68211;45.774;15.892;2023-04-03T00:26:16;3.50;;;3.20;;
78860;SDS011;68211;45.774;15.892;2023-04-03T00:28:43;3.38;;;3.08;;
78860;SDS011;68211;45.774;15.892;2023-04-03T00:31:09;3.42;;;3.13;;
78860;SDS011;68211;45.774;15.892;2023-04-03T00:33:39;3.22;;;2.90;;
78860;SDS011;68211;45.774;15.892;2023-04-03T00:36:06;3.35;;;3.05;;
78860;SDS011;68211;45.774;15.892;2023-04-03T00:38:32;3.50;;;3.20;;
78860;SDS011;68211;45.774;15.892;2023-04-03T00:40:58;3.22;;;2.92;;
78860;SDS011;68211;45.774;15.892;2023-04-03T00:43:27;3.83;;;3.40;;
78860;SDS011;68211;45.774;15.892;2023-04-03T00:45:54;3.40;;;3.10;;
78860;SDS011;68211;45.774;15.892;2023-04-03T00:48:21;3.70;;;3.40;;
78860;SDS011;68211;45.774;15.892;2023-04-03T00:50:48;3.85;;;2.97;;
78860;SDS011;68211;45.774;15.892;2023-04-03T00:53:16;3.13;;;2.92;;
78860;SDS011;68211;45.774;15.892;2023-04-03T00:55:43;5.75;;;3.20;;
78860;SDS011;68211;45.774;15.892;2023-04-03T00:58:12;3.38;;;3.00;;
78860;SDS011;68211;45.774;15.892;2023-04-03T01:00:42;3.88;;;3.00;;
78860;SDS011;68211;45.774;15.892;2023-04-03T01:03:10;3.63;;;3.30;;
78860;SDS011;68211;45.774;15.892;2023-04-03T01:05:37;3.10;;;2.90;;
78860;SDS011;68211;45.774;15.892;2023-04-03T01:08:04;5.25;;;3.22;;
78860;SDS011;68211;45.774;15.892;2023-04-03T01:10:30;3.22;;;2.92;;
78860;SDS011;68211;45.774;15.892;2023-04-03T01:13:00;3.05;;;2.85;;
78860;SDS011;68211;45.774;15.892;2023-04-03T01:15:28;2.92;;;2.72;;
78860;SDS011;68211;45.774;15.892;2023-04-03T01:18:00;4.20;;;3.13;;
78860;SDS011;68211;45.774;15.892;2023-04-03T01:20:48;3.20;;;2.90;;
78860;SDS011;68211;45.774;15.892;2023-04-03T01:23:24;4.38;;;3.17;;
78860;SDS011;68211;45.774;15.892;2023-04-03T01:26:02;3.67;;;3.22;;
78860;SDS011;68211;45.774;15.892;2023-04-03T01:28:30;5.32;;;2.88;;
78860;SDS011;68211;45.774;15.892;2023-04-03T01:31:00;3.90;;;2.88;;
78860;SDS011;68211;45.774;15.892;2023-04-03T01:33:31;4.10;;;3.17;;
78860;SDS011;68211;45.774;15.892;2023-04-03T01:35:58;4.82;;;2.88;;
78860;SDS011;68211;45.774;15.892;2023-04-03T01:38:24;4.72;;;3.20;;
78860;SDS011;68211;45.774;15.892;2023-04-03T01:40:51;3.50;;;2.70;;
78860;SDS011;68211;45.774;15.892;2023-04-03T01:43:17;4.72;;;2.90;;
78860;SDS011;68211;45.774;15.892;2023-04-03T01:45:44;3.20;;;3.00;;
78860;SDS011;68211;45.774;15.892;2023-04-03T01:48:12;3.45;;;2.90;;
78860;SDS011;68211;45.774;15.892;2023-04-03T01:50:40;4.85;;;3.05;;
78860;SDS011;68211;45.774;15.892;2023-04-03T01:53:06;3.38;;;2.83;;
78860;SDS011;68211;45.774;15.892;2023-04-03T01:55:44;3.25;;;2.95;;
78860;SDS011;68211;45.774;15.892;2023-04-03T01:58:25;3.17;;;2.88;;
78860;SDS011;68211;45.774;15.892;2023-04-03T02:00:55;4.13;;;3.47;;
78860;SDS011;68211;45.774;15.892;2023-04-03T02:05:49;5.65;;;2.90;;
78860;SDS011;68211;45.774;15.892;2023-04-03T02:08:16;3.28;;;2.97;;
78860;SDS011;68211;45.774;15.892;2023-04-03T02:10:42;2.88;;;2.67;;
78860;SDS011;68211;45.774;15.892;2023-04-03T02:13:09;4.00;;;3.10;;
78860;SDS011;68211;45.774;15.892;2023-04-03T02:15:37;3.47;;;2.88;;
78860;SDS011;68211;45.774;15.892;2023-04-03T02:18:03;3.20;;;2.95;;
78860;SDS011;68211;45.774;15.892;2023-04-03T02:20:33;4.80;;;2.90;;
78860;SDS011;68211;45.774;15.892;2023-04-03T02:23:01;3.58;;;3.28;;
78860;SDS011;68211;45.774;15.892;2023-04-03T02:25:28;3.45;;;3.15;;
78860;SDS011;68211;45.774;15.892;2023-04-03T02:27:54;3.22;;;2.92;;
78860;SDS011;68211;45.774;15.892;2023-04-03T02:30:21;3.10;;;2.90;;
78860;SDS011;68211;45.774;15.892;2023-04-03T02:32:47;3.38;;;3.08;;
78860;SDS011;68211;45.774;15.892;2023-04-03T02:35:14;3.17;;;2.97;;
78860;SDS011;68211;45.774;15.892;2023-04-03T02:37:41;3.90;;;2.97;;
78860;SDS011;68211;45.774;15.892;2023-04-03T02:40:09;5.28;;;3.08;;
78860;SDS011;68211;45.774;15.892;2023-04-03T02:42:35;3.60;;;3.30;;
78860;SDS011;68211;45.774;15.892;2023-04-03T02:45:02;3.13;;;2.88;;
78860;SDS011;68211;45.774;15.892;2023-04-03T02:47:29;3.47;;;3.00;;
78860;SDS011;68211;45.774;15.892;2023-04-03T02:49:55;3.28;;;2.97;;
78860;SDS011;68211;45.774;15.892;2023-04-03T02:52:22;6.03;;;2.95;;
78860;SDS011;68211;45.774;15.892;2023-04-03T02:54:48;3.20;;;2.90;;
78860;SDS011;68211;45.774;15.892;2023-04-03T02:57:16;2.88;;;2.67;;
78860;SDS011;68211;45.774;15.892;2023-04-03T02:59:42;3.80;;;3.50;;
78860;SDS011;68211;45.774;15.892;2023-04-03T03:02:09;3.47;;;3.17;;
78860;SDS011;68211;45.774;15.892;2023-04-03T03:04:35;3.85;;;3.13;;
78860;SDS011;68211;45.774;15.892;2023-04-03T03:07:02;4.38;;;2.90;;
78860;SDS011;68211;45.774;15.892;2023-04-03T03:09:28;3.72;;;2.90;;
78860;SDS011;68211;45.774;15.892;2023-04-03T03:11:55;3.53;;;3.08;;
78860;SDS011;68211;45.774;15.892;2023-04-03T03:14:23;5.75;;;3.00;;
78860;SDS011;68211;45.774;15.892;2023-04-03T03:16:50;4.00;;;2.90;;
78860;SDS011;68211;45.774;15.892;2023-04-03T03:19:16;4.03;;;3.13;;
78860;SDS011;68211;45.774;15.892;2023-04-03T03:21:42;2.95;;;2.75;;
78860;SDS011;68211;45.774;15.892;2023-04-03T03:24:09;3.80;;;3.05;;
78860;SDS011;68211;45.774;15.892;2023-04-03T03:26:35;2.97;;;2.72;;
78860;SDS011;68211;45.774;15.892;2023-04-03T03:29:02;3.10;;;2.90;;
78860;SDS011;68211;45.774;15.892;2023-04-03T03:31:29;2.80;;;2.60;;
78860;SDS011;68211;45.774;15.892;2023-04-03T03:33:56;2.55;;;2.45;;
78860;SDS011;68211;45.774;15.892;2023-04-03T03:36:22;2.80;;;2.60;;
78860;SDS011;68211;45.774;15.892;2023-04-03T03:38:49;3.15;;;2.60;;
78860;SDS011;68211;45.774;15.892;2023-04-03T03:41:15;3.13;;;2.83;;
78860;SDS011;68211;45.774;15.892;2023-04-03T03:43:41;3.17;;;2.88;;
78860;SDS011;68211;45.774;15.892;2023-04-03T03:46:08;3.05;;;2.55;;
78860;SDS011;68211;45.774;15.892;2023-04-03T03:48:36;3.42;;;3.08;;
78860;SDS011;68211;45.774;15.892;2023-04-03T03:51:02;4.00;;;2.60;;
78860;SDS011;68211;45.774;15.892;2023-04-03T03:53:29;2.60;;;2.40;;
78860;SDS011;68211;45.774;15.892;2023-04-03T03:55:55;2.63;;;2.42;;
78860;SDS011;68211;45.774;15.892;2023-04-03T03:58:22;6.25;;;3.08;;
78860;SDS011;68211;45.774;15.892;2023-04-03T04:00:48;3.63;;;3.10;;
78860;SDS011;68211;45.774;15.892;2023-04-03T04:03:14;3.22;;;2.92;;
78860;SDS011;68211;45.774;15.892;2023-04-03T04:05:42;3.20;;;2.90;;
78860;SDS011;68211;45.774;15.892;2023-04-03T04:08:09;4.88;;;3.00;;
78860;SDS011;68211;45.774;15.892;2023-04-03T04:10:35;5.25;;;3.08;;
78860;SDS011;68211;45.774;15.892;2023-04-03T04:13:03;6.45;;;3.15;;
78860;SDS011;68211;45.774;15.892;2023-04-03T04:15:29;3.67;;;2.95;;
78860;SDS011;68211;45.774;15.892;2023-04-03T04:17:56;4.53;;;3.35;;
78860;SDS011;68211;45.774;15.892;2023-04-03T04:20:22;5.30;;;3.10;;
78860;SDS011;68211;45.774;15.892;2023-04-03T04:22:50;3.00;;;2.80;;
78860;SDS011;68211;45.774;15.892;2023-04-03T04:25:17;6.50;;;2.42;;
78860;SDS011;68211;45.774;15.892;2023-04-03T04:27:43;3.85;;;3.30;;
78860;SDS011;68211;45.774;15.892;2023-04-03T04:30:10;4.10;;;2.80;;
78860;SDS011;68211;45.774;15.892;2023-04-03T04:32:36;3.30;;;2.97;;
78860;SDS011;68211;45.774;15.892;2023-04-03T04:35:03;3.83;;;3.10;;
78860;SDS011;68211;45.774;15.892;2023-04-03T04:37:30;5.65;;;3.72;;
78860;SDS011;68211;45.774;15.892;2023-04-03T04:39:58;8.30;;;3.38;;
78860;SDS011;68211;45.774;15.892;2023-04-03T04:42:24;4.13;;;3.72;;
78860;SDS011;68211;45.774;15.892;2023-04-03T04:44:51;4.00;;;3.58;;
78860;SDS011;68211;45.774;15.892;2023-04-03T04:47:17;6.38;;;3.42;;
78860;SDS011;68211;45.774;15.892;2023-04-03T04:49:43;4.55;;;3.05;;
78860;SDS011;68211;45.774;15.892;2023-04-03T04:52:10;6.65;;;3.20;;
78860;SDS011;68211;45.774;15.892;2023-04-03T04:54:36;3.88;;;3.40;;
78860;SDS011;68211;45.774;15.892;2023-04-03T04:57:04;8.88;;;3.42;;
78860;SDS011;68211;45.774;15.892;2023-04-03T04:59:31;3.67;;;3.38;;
78860;SDS011;68211;45.774;15.892;2023-04-03T05:01:57;4.78;;;3.30;;
78860;SDS011;68211;45.774;15.892;2023-04-03T05:04:23;4.13;;;3.10;;
78860;SDS011;68211;45.774;15.892;2023-04-03T05:06:50;4.68;;;3.15;;
78860;SDS011;68211;45.774;15.892;2023-04-03T05:09:16;4.05;;;3.65;;
78860;SDS011;68211;45.774;15.892;2023-04-03T05:11:43;8.32;;;4.20;;
78860;SDS011;68211;45.774;15.892;2023-04-03T05:14:10;6.57;;;3.72;;
78860;SDS011;68211;45.774;15.892;2023-04-03T05:16:37;6.97;;;4.40;;
78860;SDS011;68211;45.774;15.892;2023-04-03T05:19:03;7.60;;;5.30;;
78860;SDS011;68211;45.774;15.892;2023-04-03T05:21:30;8.35;;;4.70;;
78860;SDS011;68211;45.774;15.892;2023-04-03T05:23:56;14.05;;;5.40;;
78860;SDS011;68211;45.774;15.892;2023-04-03T05:26:23;7.10;;;5.30;;
78860;SDS011;68211;45.774;15.892;2023-04-03T05:28:49;9.40;;;5.95;;
78860;SDS011;68211;45.774;15.892;2023-04-03T05:31:17;15.10;;;5.78;;
78860;SDS011;68211;45.774;15.892;2023-04-03T05:33:43;7.10;;;5.00;;
78860;SDS011;68211;45.774;15.892;2023-04-03T05:36:10;8.77;;;5.35;;
78860;SDS011;68211;45.774;15.892;2023-04-03T05:38:37;11.02;;;6.30;;
78860;SDS011;68211;45.774;15.892;2023-04-03T05:41:03;13.82;;;6.15;;
78860;SDS011;68211;45.774;15.892;2023-04-03T05:43:30;16.33;;;5.55;;
78860;SDS011;68211;45.774;15.892;2023-04-03T05:45:56;13.25;;;6.60;;
78860;SDS011;68211;45.774;15.892;2023-04-03T05:48:24;11.40;;;6.38;;
78860;SDS011;68211;45.774;15.892;2023-04-03T05:50:51;13.10;;;7.68;;
78860;SDS011;68211;45.774;15.892;2023-04-03T05:53:17;12.35;;;7.95;;
78860;SDS011;68211;45.774;15.892;2023-04-03T05:55:45;14.55;;;7.97;;
78860;SDS011;68211;45.774;15.892;2023-04-03T05:58:11;13.63;;;9.82;;
78860;SDS011;68211;45.774;15.892;2023-04-03T06:00:38;20.23;;;11.27;;
78860;SDS011;68211;45.774;15.892;2023-04-03T06:03:04;17.23;;;10.82;;
78860;SDS011;68211;45.774;15.892;2023-04-03T06:05:32;16.05;;;10.85;;
78860;SDS011;68211;45.774;15.892;2023-04-03T06:07:59;12.18;;;8.70;;
78860;SDS011;68211;45.774;15.892;2023-04-03T06:10:25;15.40;;;9.32;;
78860;SDS011;68211;45.774;15.892;2023-04-03T06:12:51;12.38;;;8.27;;
78860;SDS011;68211;45.774;15.892;2023-04-03T06:15:18;14.75;;;8.02;;
78860;SDS011;68211;45.774;15.892;2023-04-03T06:17:45;13.50;;;9.55;;
78860;SDS011;68211;45.774;15.892;2023-04-03T06:20:11;18.17;;;11.02;;
78860;SDS011;68211;45.774;15.892;2023-04-03T06:22:39;14.27;;;9.75;;
78860;SDS011;68211;45.774;15.892;2023-04-03T06:25:06;13.10;;;8.73;;
78860;SDS011;68211;45.774;15.892;2023-04-03T06:27:33;10.80;;;8.30;;
78860;SDS011;68211;45.774;15.892;2023-04-03T06:29:59;7.68;;;5.60;;
78860;SDS011;68211;45.774;15.892;2023-04-03T06:32:25;9.55;;;6.63;;
78860;SDS011;68211;45.774;15.892;2023-04-03T06:34:52;6.07;;;4.18;;
78860;SDS011;68211;45.774;15.892;2023-04-03T06:37:19;4.90;;;3.75;;
78860;SDS011;68211;45.774;15.892;2023-04-03T06:39:47;4.57;;;3.70;;
78860;SDS011;68211;45.774;15.892;2023-04-03T06:42:14;7.10;;;2.90;;
78860;SDS011;68211;45.774;15.892;2023-04-03T06:44:40;2.70;;;2.50;;
78860;SDS011;68211;45.774;15.892;2023-04-03T06:47:08;2.55;;;2.30;;
78860;SDS011;68211;45.774;15.892;2023-04-03T06:49:35;5.85;;;2.50;;
78860;SDS011;68211;45.774;15.892;2023-04-03T06:52:02;5.05;;;2.90;;
78860;SDS011;68211;45.774;15.892;2023-04-03T06:54:28;2.10;;;1.60;;
78860;SDS011;68211;45.774;15.892;2023-04-03T06:56:56;1.88;;;1.77;;
78860;SDS011;68211;45.774;15.892;2023-04-03T06:59:22;1.50;;;1.40;;
78860;SDS011;68211;45.774;15.892;2023-04-03T07:01:49;1.67;;;1.55;;
78860;SDS011;68211;45.774;15.892;2023-04-03T07:04:16;2.45;;;1.52;;
78860;SDS011;68211;45.774;15.892;2023-04-03T07:06:42;1.70;;;1.60;;
78860;SDS011;68211;45.774;15.892;2023-04-03T07:09:09;1.55;;;1.45;;
78860;SDS011;68211;45.774;15.892;2023-04-03T07:11:35;1.98;;;1.77;;
78860;SDS011;68211;45.774;15.892;2023-04-03T07:14:03;1.70;;;1.55;;
78860;SDS011;68211;45.774;15.892;2023-04-03T07:16:30;2.00;;;1.80;;
78860;SDS011;68211;45.774;15.892;2023-04-03T07:18:56;15.43;;;5.47;;
78860;SDS011;68211;45.774;15.892;2023-04-03T07:21:23;1.70;;;1.60;;
78860;SDS011;68211;45.774;15.892;2023-04-03T07:23:49;1.90;;;1.80;;
78860;SDS011;68211;45.774;15.892;2023-04-03T07:26:16;1.77;;;1.67;;
78860;SDS011;68211;45.774;15.892;2023-04-03T07:28:42;1.80;;;1.40;;
78860;SDS011;68211;45.774;15.892;2023-04-03T07:31:11;1.50;;;1.40;;
78860;SDS011;68211;45.774;15.892;2023-04-03T07:33:38;2.88;;;1.52;;
78860;SDS011;68211;45.774;15.892;2023-04-03T07:36:05;1.90;;;1.80;;
78860;SDS011;68211;45.774;15.892;2023-04-03T07:38:32;1.50;;;1.40;;
78860;SDS011;68211;45.774;15.892;2023-04-03T07:40:59;1.75;;;1.45;;
78860;SDS011;68211;45.774;15.892;2023-04-03T07:43:25;1.45;;;1.35;;
78860;SDS011;68211;45.774;15.892;2023-04-03T07:45:55;1.70;;;1.60;;
78860;SDS011;68211;45.774;15.892;2023-04-03T07:48:23;1.95;;;1.77;;
78860;SDS011;68211;45.774;15.892;2023-04-03T07:50:50;1.73;;;1.63;;
78860;SDS011;68211;45.774;15.892;2023-04-03T07:53:16;2.90;;;2.30;;
78860;SDS011;68211;45.774;15.892;2023-04-03T07:55:45;2.75;;;1.75;;
78860;SDS011;68211;45.774;15.892;2023-04-03T07:58:13;1.95;;;1.80;;
78860;SDS011;68211;45.774;15.892;2023-04-03T08:00:43;4.13;;;2.10;;
78860;SDS011;68211;45.774;15.892;2023-04-03T08:03:10;1.75;;;1.65;;
78860;SDS011;68211;45.774;15.892;2023-04-03T08:05:39;1.70;;;1.60;;
78860;SDS011;68211;45.774;15.892;2023-04-03T08:08:06;1.80;;;1.70;;
78860;SDS011;68211;45.774;15.892;2023-04-03T08:10:35;2.88;;;1.92;;
78860;SDS011;68211;45.774;15.892;2023-04-03T08:13:04;1.73;;;1.63;;
78860;SDS011;68211;45.774;15.892;2023-04-03T08:15:30;1.52;;;1.42;;
78860;SDS011;68211;45.774;15.892;2023-04-03T08:17:57;1.58;;;1.38;;
78860;SDS011;68211;45.774;15.892;2023-04-03T08:20:23;2.17;;;1.50;;
78860;SDS011;68211;45.774;15.892;2023-04-03T08:22:51;1.80;;;1.70;;
78860;SDS011;68211;45.774;15.892;2023-04-03T08:25:18;1.80;;;1.70;;
78860;SDS011;68211;45.774;15.892;2023-04-03T08:27:44;1.73;;;1.63;;
78860;SDS011;68211;45.774;15.892;2023-04-03T08:30:11;2.10;;;1.90;;
78860;SDS011;68211;45.774;15.892;2023-04-03T08:32:38;1.92;;;1.70;;
78860;SDS011;68211;45.774;15.892;2023-04-03T08:35:05;2.67;;;1.90;;
78860;SDS011;68211;45.774;15.892;2023-04-03T08:37:34;2.00;;;1.90;;
78860;SDS011;68211;45.774;15.892;2023-04-03T08:40:02;4.20;;;2.20;;
78860;SDS011;68211;45.774;15.892;2023-04-03T08:42:33;2.05;;;1.90;;
78860;SDS011;68211;45.774;15.892;2023-04-03T08:45:08;1.92;;;1.83;;
78860;SDS011;68211;45.774;15.892;2023-04-03T08:47:38;2.40;;;2.20;;
78860;SDS011;68211;45.774;15.892;2023-04-03T08:50:06;2.20;;;2.00;;
78860;SDS011;68211;45.774;15.892;2023-04-03T08:52:37;2.03;;;1.83;;
78860;SDS011;68211;45.774;15.892;2023-04-03T08:55:06;1.88;;;1.77;;
78860;SDS011;68211;45.774;15.892;2023-04-03T08:57:34;3.00;;;2.10;;
78860;SDS011;68211;45.774;15.892;2023-04-03T09:00:03;2.25;;;1.88;;
78860;SDS011;68211;45.774;15.892;2023-04-03T09:02:31;2.20;;;1.88;;
78860;SDS011;68211;45.774;15.892;2023-04-03T09:04:58;1.92;;;1.83;;
78860;SDS011;68211;45.774;15.892;2023-04-03T09:07:27;2.40;;;1.90;;
78860;SDS011;68211;45.774;15.892;2023-04-03T09:09:56;3.10;;;1.90;;
78860;SDS011;68211;45.774;15.892;2023-04-03T09:12:27;2.38;;;2.17;;
78860;SDS011;68211;45.774;15.892;2023-04-03T09:15:00;2.20;;;1.80;;
78860;SDS011;68211;45.774;15.892;2023-04-03T09:17:31;3.45;;;2.10;;
78860;SDS011;68211;45.774;15.892;2023-04-03T09:20:03;3.00;;;2.05;;
78860;SDS011;68211;45.774;15.892;2023-04-03T09:22:34;2.33;;;2.13;;
78860;SDS011;68211;45.774;15.892;2023-04-03T09:25:17;2.13;;;1.95;;
78860;SDS011;68211;45.774;15.892;2023-04-03T09:27:46;2.20;;;2.00;;
78860;SDS011;68211;45.774;15.892;2023-04-03T09:30:13;1.95;;;1.80;;
78860;SDS011;68211;45.774;15.892;2023-04-03T09:32:39;2.00;;;1.90;;
78860;SDS011;68211;45.774;15.892;2023-04-03T09:35:10;2.55;;;1.92;;
78860;SDS011;68211;45.774;15.892;2023-04-03T09:37:49;2.03;;;1.92;;
78860;SDS011;68211;45.774;15.892;2023-04-03T09:43:02;2.10;;;2.00;;
78860;SDS011;68211;45.774;15.892;2023-04-03T09:45:29;1.85;;;1.75;;
78860;SDS011;68211;45.774;15.892;2023-04-03T09:48:06;2.45;;;1.90;;
78860;SDS011;68211;45.774;15.892;2023-04-03T09:50:38;1.90;;;1.80;;
78860;SDS011;68211;45.774;15.892;2023-04-03T09:53:06;1.98;;;1.80;;
78860;SDS011;68211;45.774;15.892;2023-04-03T09:55:33;2.53;;;1.98;;
78860;SDS011;68211;45.774;15.892;2023-04-03T09:58:24;1.70;;;1.60;;
78860;SDS011;68211;45.774;15.892;2023-04-03T10:00:57;1.85;;;1.75;;
78860;SDS011;68211;45.774;15.892;2023-04-03T10:03:25;1.80;;;1.70;;
78860;SDS011;68211;45.774;15.892;2023-04-03T10:05:53;1.80;;;1.70;;
78860;SDS011;68211;45.774;15.892;2023-04-03T10:08:20;1.55;;;1.45;;
78860;SDS011;68211;45.774;15.892;2023-04-03T10:10:48;2.55;;;1.50;;
78860;SDS011;68211;45.774;15.892;2023-04-03T10:13:32;1.73;;;1.63;;
78860;SDS011;68211;45.774;15.892;2023-04-03T10:16:08;1.60;;;1.50;;
78860;SDS011;68211;45.774;15.892;2023-04-03T10:18:38;1.73;;;1.60;;
78860;SDS011;68211;45.774;15.892;2023-04-03T10:21:08;2.55;;;1.73;;
78860;SDS011;68211;45.774;15.892;2023-04-03T10:23:51;2.05;;;1.45;;
78860;SDS011;68211;45.774;15.892;2023-04-03T10:26:24;1.83;;;1.70;;
78860;SDS011;68211;45.774;15.892;2023-04-03T10:28:58;1.50;;;1.40;;
78860;SDS011;68211;45.774;15.892;2023-04-03T10:31:27;1.60;;;1.50;;
78860;SDS011;68211;45.774;15.892;2023-04-03T10:33:59;3.13;;;1.60;;
78860;SDS011;68211;45.774;15.892;2023-04-03T10:36:29;1.70;;;1.60;;
78860;SDS011;68211;45.774;15.892;2023-04-03T10:39:01;2.42;;;1.30;;
78860;SDS011;68211;45.774;15.892;2023-04-03T10:41:31;2.13;;;1.70;;
78860;SDS011;68211;45.774;15.892;2023-04-03T10:44:05;1.80;;;1.50;;
78860;SDS011;68211;45.774;15.892;2023-04-03T10:46:35;1.70;;;1.60;;
78860;SDS011;68211;45.774;15.892;2023-04-03T10:49:06;2.17;;;1.95;;
78860;SDS011;68211;45.774;15.892;2023-04-03T10:51:37;1.65;;;1.55;;
78860;SDS011;68211;45.774;15.892;2023-04-03T10:54:08;2.15;;;1.90;;
78860;SDS011;68211;45.774;15.892;2023-04-03T10:56:38;2.78;;;1.58;;
78860;SDS011;68211;45.774;15.892;2023-04-03T10:59:18;2.58;;;1.50;;
78860;SDS011;68211;45.774;15.892;2023-04-03T11:01:48;2.28;;;1.70;;
78860;SDS011;68211;45.774;15.892;2023-04-03T11:04:15;1.80;;;1.70;;
78860;SDS011;68211;45.774;15.892;2023-04-03T11:06:43;2.22;;;2.03;;
78860;SDS011;68211;45.774;15.892;2023-04-03T11:09:14;1.95;;;1.73;;
78860;SDS011;68211;45.774;15.892;2023-04-03T11:11:43;3.47;;;1.77;;
78860;SDS011;68211;45.774;15.892;2023-04-03T11:14:10;1.65;;;1.50;;
78860;SDS011;68211;45.774;15.892;2023-04-03T11:16:40;2.33;;;1.60;;
78860;SDS011;68211;45.774;15.892;2023-04-03T11:19:18;3.83;;;1.42;;
78860;SDS011;68211;45.774;15.892;2023-04-03T11:21:46;1.80;;;1.70;;
78860;SDS011;68211;45.774;15.892;2023-04-03T11:24:15;2.30;;;1.70;;
78860;SDS011;68211;45.774;15.892;2023-04-03T11:26:44;3.85;;;1.70;;
78860;SDS011;68211;45.774;15.892;2023-04-03T11:29:12;2.97;;;1.60;;
78860;SDS011;68211;45.774;15.892;2023-04-03T11:32:04;1.60;;;1.50;;
78860;SDS011;68211;45.774;15.892;2023-04-03T11:34:33;1.70;;;1.60;;
78860;SDS011;68211;45.774;15.892;2023-04-03T11:37:29;1.70;;;1.60;;
78860;SDS011;68211;45.774;15.892;2023-04-03T11:40:37;1.77;;;1.67;;
78860;SDS011;68211;45.774;15.892;2023-04-03T11:43:55;3.03;;;1.95;;
78860;SDS011;68211;45.774;15.892;2023-04-03T11:46:52;1.63;;;1.52;;
78860;SDS011;68211;45.774;15.892;2023-04-03T11:58:44;1.90;;;1.80;;
78860;SDS011;68211;45.774;15.892;2023-04-03T12:01:52;3.83;;;1.80;;
78860;SDS011;68211;45.774;15.892;2023-04-03T12:04:46;2.60;;;1.97;;
78860;SDS011;68211;45.774;15.892;2023-04-03T12:19:31;2.83;;;2.05;;
78860;SDS011;68211;45.774;15.892;2023-04-03T12:22:09;1.83;;;1.70;;
78860;SDS011;68211;45.774;15.892;2023-04-03T12:27:42;1.98;;;1.80;;
78860;SDS011;68211;45.774;15.892;2023-04-03T12:30:30;2.50;;;1.65;;
78860;SDS011;68211;45.774;15.892;2023-04-03T12:33:12;2.67;;;1.92;;
78860;SDS011;68211;45.774;15.892;2023-04-03T12:39:09;2.13;;;1.92;;
78860;SDS011;68211;45.774;15.892;2023-04-03T12:41:46;2.15;;;1.85;;
78860;SDS011;68211;45.774;15.892;2023-04-03T12:44:41;2.75;;;1.67;;
78860;SDS011;68211;45.774;15.892;2023-04-03T12:47:35;3.03;;;1.60;;
78860;SDS011;68211;45.774;15.892;2023-04-03T12:50:18;2.65;;;1.90;;
78860;SDS011;68211;45.774;15.892;2023-04-03T12:53:15;3.10;;;1.67;;
78860;SDS011;68211;45.774;15.892;2023-04-03T12:55:51;2.97;;;1.88;;
78860;SDS011;68211;45.774;15.892;2023-04-03T12:58:34;5.85;;;1.92;;
78860;SDS011;68211;45.774;15.892;2023-04-03T13:01:23;1.95;;;1.85;;
78860;SDS011;68211;45.774;15.892;2023-04-03T13:16:35;2.95;;;1.83;;
78860;SDS011;68211;45.774;15.892;2023-04-03T13:19:18;2.60;;;1.70;;
78860;SDS011;68211;45.774;15.892;2023-04-03T13:27:45;2.28;;;1.98;;
78860;SDS011;68211;45.774;15.892;2023-04-03T13:30:29;1.77;;;1.67;;
78860;SDS011;68211;45.774;15.892;2023-04-03T13:33:20;2.30;;;1.80;;
78860;SDS011;68211;45.774;15.892;2023-04-03T13:35:54;1.83;;;1.58;;
78860;SDS011;68211;45.774;15.892;2023-04-03T13:38:30;2.00;;;1.77;;
78860;SDS011;68211;45.774;15.892;2023-04-03T13:41:04;2.28;;;2.05;;
78860;SDS011;68211;45.774;15.892;2023-04-03T13:46:40;2.78;;;2.22;;
78860;SDS011;68211;45.774;15.892;2023-04-03T13:49:29;1.90;;;1.75;;
78860;SDS011;68211;45.774;15.892;2023-04-03T13:52:40;4.43;;;1.85;;
78860;SDS011;68211;45.774;15.892;2023-04-03T13:55:16;2.03;;;1.85;;
78860;SDS011;68211;45.774;15.892;2023-04-03T13:57:53;1.80;;;1.70;;
78860;SDS011;68211;45.774;15.892;2023-04-03T14:03:29;4.05;;;1.95;;
78860;SDS011;68211;45.774;15.892;2023-04-03T14:06:15;2.20;;;2.10;;
78860;SDS011;68211;45.774;15.892;2023-04-03T14:09:00;2.63;;;1.77;;
78860;SDS011;68211;45.774;15.892;2023-04-03T14:11:42;2.53;;;2.15;;
78860;SDS011;68211;45.774;15.892;2023-04-03T14:14:14;2.00;;;1.90;;
78860;SDS011;68211;45.774;15.892;2023-04-03T14:16:56;2.30;;;2.10;;
78860;SDS011;68211;45.774;15.892;2023-04-03T14:20:04;5.65;;;2.15;;
78860;SDS011;68211;45.774;15.892;2023-04-03T14:25:47;3.90;;;2.17;;
78860;SDS011;68211;45.774;15.892;2023-04-03T14:28:27;2.80;;;2.33;;
78860;SDS011;68211;45.774;15.892;2023-04-03T14:31:18;3.00;;;2.35;;
78860;SDS011;68211;45.774;15.892;2023-04-03T14:34:09;2.20;;;2.10;;
78860;SDS011;68211;45.774;15.892;2023-04-03T14:39:43;2.20;;;2.00;;
78860;SDS011;68211;45.774;15.892;2023-04-03T14:42:20;2.60;;;2.00;;
78860;SDS011;68211;45.774;15.892;2023-04-03T14:44:49;3.50;;;1.90;;
78860;SDS011;68211;45.774;15.892;2023-04-03T14:47:24;2.75;;;2.00;;
78860;SDS011;68211;45.774;15.892;2023-04-03T14:50:00;4.30;;;2.10;;
78860;SDS011;68211;45.774;15.892;2023-04-03T14:52:29;2.90;;;2.08;;
78860;SDS011;68211;45.774;15.892;2023-04-03T14:55:02;4.90;;;2.45;;
78860;SDS011;68211;45.774;15.892;2023-04-03T14:57:32;5.18;;;2.30;;
78860;SDS011;68211;45.774;15.892;2023-04-03T15:00:02;3.03;;;2.40;;
78860;SDS011;68211;45.774;15.892;2023-04-03T15:02:29;2.47;;;2.28;;
78860;SDS011;68211;45.774;15.892;2023-04-03T15:05:00;4.13;;;2.47;;
78860;SDS011;68211;45.774;15.892;2023-04-03T15:07:33;3.47;;;2.10;;
78860;SDS011;68211;45.774;15.892;2023-04-03T15:10:05;4.40;;;2.10;;
78860;SDS011;68211;45.774;15.892;2023-04-03T15:12:37;4.95;;;1.98;;
78860;SDS011;68211;45.774;15.892;2023-04-03T15:15:04;2.40;;;2.20;;
78860;SDS011;68211;45.774;15.892;2023-04-03T15:17:32;3.90;;;2.72;;
78860;SDS011;68211;45.774;15.892;2023-04-03T15:19:59;2.50;;;2.30;;
78860;SDS011;68211;45.774;15.892;2023-04-03T15:22:26;2.78;;;2.58;;
78860;SDS011;68211;45.774;15.892;2023-04-03T15:30:00;5.28;;;2.10;;
78860;SDS011;68211;45.774;15.892;2023-04-03T15:32:27;3.30;;;2.30;;
78860;SDS011;68211;45.774;15.892;2023-04-03T15:35:02;2.60;;;2.30;;
78860;SDS011;68211;45.774;15.892;2023-04-03T15:37:32;2.72;;;2.10;;
78860;SDS011;68211;45.774;15.892;2023-04-03T15:39:59;2.30;;;2.10;;
78860;SDS011;68211;45.774;15.892;2023-04-03T15:42:28;3.20;;;2.28;;
78860;SDS011;68211;45.774;15.892;2023-04-03T15:44:55;3.88;;;2.78;;
78860;SDS011;68211;45.774;15.892;2023-04-03T15:47:22;3.60;;;2.65;;
78860;SDS011;68211;45.774;15.892;2023-04-03T15:49:50;3.43;;;2.57;;
78860;SDS011;68211;45.774;15.892;2023-04-03T15:52:16;2.50;;;2.30;;
78860;SDS011;68211;45.774;15.892;2023-04-03T15:54:43;2.55;;;2.17;;
78860;SDS011;68211;45.774;15.892;2023-04-03T15:57:09;2.15;;;1.95;;
78860;SDS011;68211;45.774;15.892;2023-04-03T15:59:36;4.10;;;2.28;;
78860;SDS011;68211;45.774;15.892;2023-04-03T16:02:03;2.47;;;2.08;;